Time;durP1;ratioP1;P1;durP2;ratioP2;P2;SDS_P1;SDS_P2;PMS_P1;PMS_P2;Temp;Humidity;BMP_temperature;BMP_pressure;BME280_temperature;BME280_humidity;BME280_pressure;Samples;Min_cycle;Max_cycle;Signal;HPM_P1;HPM_P2
2023/03/11 00:03:39;;;;;;;0.50;0.50;;;4.80;99.90;;;;;;7796261;28;20225;-91
2023/03/11 00:07:24;;;;;;;0.53;0.53;;;4.40;99.90;;;;;;7843568;28;20185;-90
2023/03/11 00:11:11;;;;;;;0.60;0.57;;;4.10;99.90;;;;;;7790269;28;20186;-90
2023/03/11 00:14:57;;;;;;;0.60;0.60;;;4.00;99.90;;;;;;7800528;28;20586;-91
2023/03/11 00:18:42;;;;;;;0.87;0.50;;;4.00;99.90;;;;;;7804742;28;20226;-91
2023/03/11 00:22:28;;;;;;;0.70;0.70;;;3.70;99.90;;;;;;7799861;28;20183;-92
2023/03/11 00:26:14;;;;;;;0.60;0.60;;;3.70;99.90;;;;;;7796620;28;20186;-92
2023/03/11 00:29:59;;;;;;;0.83;0.80;;;3.60;99.90;;;;;;7787053;28;20187;-91
2023/03/11 00:33:45;;;;;;;1.60;0.80;;;3.50;99.90;;;;;;7779075;28;20217;-91
2023/03/11 00:37:31;;;;;;;0.67;0.67;;;3.30;99.90;;;;;;7792549;28;20210;-90
2023/03/11 00:41:16;;;;;;;1.60;0.90;;;3.10;99.90;;;;;;7810177;28;20186;-91
2023/03/11 00:45:02;;;;;;;1.10;1.00;;;2.90;99.90;;;;;;7795320;28;20211;-91
2023/03/11 00:48:50;;;;;;;0.97;0.77;;;2.90;99.90;;;;;;7810411;28;20626;-92
2023/03/11 00:52:35;;;;;;;3.17;0.83;;;2.80;99.90;;;;;;7796069;28;20210;-91
2023/03/11 00:56:21;;;;;;;0.80;0.73;;;2.70;99.90;;;;;;7796713;28;20206;-90
2023/03/11 01:00:10;;;;;;;1.60;1.17;;;2.70;99.90;;;;;;7803688;28;20183;-90
2023/03/11 01:03:56;;;;;;;1.27;1.10;;;2.50;99.90;;;;;;7794050;28;20203;-91
2023/03/11 01:07:42;;;;;;;1.27;1.00;;;2.50;99.90;;;;;;7795369;28;20193;-91
2023/03/11 01:11:27;;;;;;;1.20;1.00;;;2.40;99.90;;;;;;7807544;28;20175;-91
2023/03/11 01:15:35;;;;;;;1.20;1.10;;;2.40;99.90;;;;;;7807956;28;20210;-90
2023/03/11 01:19:20;;;;;;;1.27;1.13;;;2.40;99.90;;;;;;7795241;28;20186;-90
2023/03/11 01:23:07;;;;;;;1.10;1.00;;;2.50;99.90;;;;;;7807403;28;20222;-91
2023/03/11 01:26:53;;;;;;;1.10;1.00;;;2.50;99.90;;;;;;7805404;28;20183;-91
2023/03/11 01:30:40;;;;;;;1.03;0.93;;;2.40;99.90;;;;;;7789767;28;20270;-90
2023/03/11 01:34:26;;;;;;;1.20;1.10;;;2.30;99.90;;;;;;7785915;28;20241;-90
2023/03/11 01:38:12;;;;;;;1.30;1.00;;;2.30;99.90;;;;;;7795024;28;20185;-91
2023/03/11 01:41:57;;;;;;;1.03;0.90;;;2.00;99.90;;;;;;7809341;28;20178;-90
2023/03/11 01:45:49;;;;;;;1.00;1.00;;;2.00;99.90;;;;;;7787496;28;20203;-90
2023/03/11 01:49:40;;;;;;;1.17;1.00;;;2.00;99.90;;;;;;7787356;28;20274;-90
2023/03/11 01:53:26;;;;;;;1.30;1.10;;;2.00;99.90;;;;;;7807905;28;20218;-92
2023/03/11 01:57:13;;;;;;;1.10;1.00;;;2.10;99.90;;;;;;7816438;28;20679;-91
2023/03/11 02:01:01;;;;;;;3.10;1.37;;;2.10;99.90;;;;;;7823514;28;20238;-92
2023/03/11 02:04:48;;;;;;;1.53;1.40;;;2.10;99.90;;;;;;7828059;28;20205;-90
2023/03/11 02:08:34;;;;;;;2.30;1.70;;;2.00;99.90;;;;;;7787906;28;20192;-90
2023/03/11 02:12:20;;;;;;;1.70;1.60;;;1.90;99.90;;;;;;7805488;28;20217;-92
2023/03/11 02:16:06;;;;;;;1.70;1.60;;;2.00;99.90;;;;;;7808740;28;20289;-90
2023/03/11 02:20:01;;;;;;;1.70;1.37;;;2.00;99.90;;;;;;7808297;28;20198;-91
2023/03/11 02:23:51;;;;;;;2.13;1.50;;;2.00;99.90;;;;;;7808292;28;20206;-90
2023/03/11 02:27:40;;;;;;;2.10;1.43;;;2.00;99.90;;;;;;7807918;28;20187;-91
2023/03/11 02:31:27;;;;;;;1.87;1.67;;;1.90;99.90;;;;;;7807806;28;20564;-91
2023/03/11 02:35:13;;;;;;;2.03;1.70;;;1.90;99.90;;;;;;7807224;28;20238;-92
2023/03/11 02:38:59;;;;;;;2.33;1.80;;;1.90;99.90;;;;;;7807900;28;20262;-90
2023/03/11 02:42:45;;;;;;;2.40;1.90;;;1.70;99.90;;;;;;7807275;28;20206;-90
2023/03/11 02:46:30;;;;;;;2.50;2.10;;;1.80;99.90;;;;;;7807237;28;20660;-91
2023/03/11 02:50:17;;;;;;;2.23;1.80;;;1.80;99.90;;;;;;7807585;28;20191;-91
2023/03/11 02:54:04;;;;;;;2.50;2.20;;;1.70;99.90;;;;;;7806897;28;20210;-91
2023/03/11 02:57:50;;;;;;;2.93;2.00;;;1.70;99.90;;;;;;7807288;28;20174;-90
2023/03/11 03:01:35;;;;;;;3.37;2.20;;;1.70;99.90;;;;;;7806016;28;20218;-91
2023/03/11 03:05:21;;;;;;;2.90;2.40;;;1.80;99.90;;;;;;7806481;28;20205;-91
2023/03/11 03:09:07;;;;;;;4.20;2.13;;;1.80;99.90;;;;;;7806947;28;20644;-91
2023/03/11 03:12:52;;;;;;;2.63;2.27;;;1.70;99.90;;;;;;7806212;28;20692;-91
2023/03/11 03:16:38;;;;;;;2.33;1.93;;;1.60;99.90;;;;;;7806577;28;20190;-91
2023/03/11 03:20:25;;;;;;;2.90;2.40;;;1.50;99.90;;;;;;7806840;28;20264;-91
2023/03/11 03:24:11;;;;;;;2.90;2.00;;;1.50;99.90;;;;;;7807601;28;20294;-90
2023/03/11 03:27:56;;;;;;;3.47;2.17;;;1.50;99.90;;;;;;7811185;28;20648;-91
2023/03/11 03:31:42;;;;;;;2.57;2.00;;;1.40;99.90;;;;;;7810293;28;20187;-91
2023/03/11 03:35:27;;;;;;;1.90;1.70;;;1.40;99.90;;;;;;7807070;28;20218;-91
2023/03/11 03:39:13;;;;;;;2.87;2.20;;;1.40;99.90;;;;;;7807909;28;20179;-90
2023/03/11 03:42:59;;;;;;;2.57;2.13;;;1.40;99.90;;;;;;7805723;28;20209;-91
2023/03/11 03:46:44;;;;;;;2.50;2.30;;;1.40;99.90;;;;;;7805693;28;20186;-91
2023/03/11 03:50:30;;;;;;;2.30;2.10;;;1.30;99.90;;;;;;7805634;28;20550;-92
2023/03/11 03:54:16;;;;;;;3.67;2.43;;;1.40;99.90;;;;;;7814358;28;20238;-92
2023/03/11 03:58:01;;;;;;;3.23;2.63;;;1.30;99.90;;;;;;7838096;28;20625;-90
2023/03/11 04:01:47;;;;;;;2.73;2.47;;;1.30;99.90;;;;;;7805163;28;20636;-90
2023/03/11 04:05:32;;;;;;;5.83;3.33;;;1.20;99.90;;;;;;7805393;28;20692;-90
2023/03/11 04:09:18;;;;;;;4.03;3.20;;;1.20;99.90;;;;;;7804990;28;20221;-92
2023/03/11 04:13:04;;;;;;;4.13;3.27;;;1.10;99.90;;;;;;7804816;28;20255;-90
2023/03/11 04:16:49;;;;;;;6.03;3.43;;;1.10;99.90;;;;;;7805133;28;20190;-90
2023/03/11 04:20:37;;;;;;;6.00;4.17;;;0.90;99.90;;;;;;7806338;28;20179;-91
2023/03/11 04:24:23;;;;;;;5.50;3.83;;;0.90;99.90;;;;;;7804760;28;20210;-90
2023/03/11 04:28:09;;;;;;;5.03;3.63;;;1.00;99.90;;;;;;7806216;28;20372;-90
2023/03/11 04:31:54;;;;;;;4.93;3.63;;;1.00;99.90;;;;;;7804363;28;20711;-91
2023/03/11 04:35:40;;;;;;;6.07;3.80;;;0.90;99.90;;;;;;7804676;28;20567;-91
2023/03/11 04:39:26;;;;;;;5.70;4.17;;;0.90;99.90;;;;;;7804644;28;20178;-91
2023/03/11 04:43:11;;;;;;;6.70;4.33;;;0.80;99.90;;;;;;7804360;28;20285;-91
2023/03/11 04:46:57;;;;;;;5.47;4.17;;;1.10;99.90;;;;;;7804716;28;20167;-90
2023/03/11 04:50:43;;;;;;;6.40;4.17;;;0.90;99.90;;;;;;7804865;28;20181;-91
2023/03/11 04:54:28;;;;;;;5.30;4.10;;;0.90;99.90;;;;;;7804513;28;20210;-90
2023/03/11 04:58:14;;;;;;;7.27;4.97;;;0.80;99.90;;;;;;7805735;28;20171;-90
2023/03/11 05:02:00;;;;;;;7.47;4.97;;;0.90;99.90;;;;;;7804159;28;20269;-91
2023/03/11 05:05:45;;;;;;;5.40;4.13;;;0.80;99.90;;;;;;7804548;28;20213;-91
2023/03/11 05:09:31;;;;;;;7.80;5.20;;;0.90;99.90;;;;;;7804754;28;20206;-90
2023/03/11 05:13:16;;;;;;;6.17;4.53;;;0.70;99.90;;;;;;7804438;28;20368;-91
2023/03/11 05:17:02;;;;;;;7.47;5.07;;;0.70;99.90;;;;;;7804117;28;20656;-91
2023/03/11 05:20:48;;;;;;;7.60;5.57;;;0.70;99.90;;;;;;7804202;28;20183;-91
2023/03/11 05:24:34;;;;;;;8.10;5.07;;;0.70;99.90;;;;;;7808458;28;20202;-88
2023/03/11 05:28:20;;;;;;;7.27;5.13;;;0.70;99.90;;;;;;7809612;28;20186;-90
2023/03/11 05:32:05;;;;;;;8.13;5.40;;;0.60;99.90;;;;;;7809514;28;20232;-90
2023/03/11 05:35:51;;;;;;;7.97;5.67;;;0.60;99.90;;;;;;7809628;28;20206;-90
2023/03/11 05:39:37;;;;;;;7.43;5.50;;;0.60;99.90;;;;;;7809422;28;20201;-91
2023/03/11 05:43:23;;;;;;;8.03;5.40;;;0.60;99.90;;;;;;7809262;28;20209;-90
2023/03/11 05:47:09;;;;;;;8.90;6.23;;;0.50;99.90;;;;;;7809383;28;20210;-90
2023/03/11 05:50:54;;;;;;;8.57;5.90;;;0.60;99.90;;;;;;7823067;28;20178;-92
2023/03/11 05:55:07;;;;;;;10.03;6.10;;;0.50;99.90;;;;;;7840508;28;20223;-90
2023/03/11 05:59:02;;;;;;;11.63;5.33;;;0.50;99.90;;;;;;7811103;28;20545;-89
2023/03/11 06:02:47;;;;;;;7.87;5.70;;;0.50;99.90;;;;;;7810501;28;20318;-90
2023/03/11 06:06:57;;;;;;;9.80;6.67;;;0.40;99.90;;;;;;7810641;28;20185;-90
2023/03/11 06:10:42;;;;;;;11.17;6.00;;;0.50;99.90;;;;;;7810226;28;20182;-90
2023/03/11 06:15:06;;;;;;;10.37;6.73;;;0.70;99.90;;;;;;7810290;28;20221;-90
2023/03/11 06:18:51;;;;;;;11.60;6.93;;;0.60;99.90;;;;;;7812622;28;20678;-90
2023/03/11 06:22:37;;;;;;;18.03;9.60;;;0.70;99.90;;;;;;7811782;28;20544;-90
2023/03/11 06:26:23;;;;;;;14.60;8.20;;;0.70;99.90;;;;;;7809565;28;20179;-90
2023/03/11 06:30:10;;;;;;;13.07;8.30;;;0.70;99.90;;;;;;7809345;28;20600;-90
2023/03/11 06:33:59;;;;;;;10.30;6.43;;;0.80;99.90;;;;;;7794670;28;20211;-90
2023/03/11 06:38:03;;;;;;;9.87;6.77;;;0.80;99.90;;;;;;7779080;28;20245;-90
2023/03/11 06:42:14;;;;;;;9.90;6.40;;;0.80;99.90;;;;;;7796120;28;20632;-90
2023/03/11 06:46:01;;;;;;;11.03;7.20;;;0.70;99.90;;;;;;7809356;28;20240;-90
2023/03/11 06:49:46;;;;;;;12.73;8.30;;;0.60;99.90;;;;;;7808986;28;20252;-90
2023/03/11 06:53:49;;;;;;;27.93;13.07;;;0.60;99.90;;;;;;7808670;28;20218;-90
2023/03/11 06:57:34;;;;;;;44.43;16.07;;;0.60;99.90;;;;;;7808902;28;20174;-90
2023/03/11 07:01:23;;;;;;;34.53;15.17;;;0.60;99.90;;;;;;7802845;28;20175;-92
2023/03/11 07:05:09;;;;;;;17.97;10.37;;;0.60;99.90;;;;;;7777686;28;20203;-91
2023/03/11 07:09:05;;;;;;;14.00;8.97;;;0.60;99.90;;;;;;7777838;28;20187;-91
2023/03/11 07:12:51;;;;;;;12.87;7.57;;;0.60;99.90;;;;;;7777803;28;20226;-91
2023/03/11 07:16:38;;;;;;;16.20;10.00;;;0.70;99.90;;;;;;7799037;28;20201;-92
2023/03/11 07:20:24;;;;;;;16.30;8.70;;;0.70;99.90;;;;;;7808160;28;20183;-91
2023/03/11 07:24:11;;;;;;;14.17;8.20;;;0.80;99.90;;;;;;7807993;28;20248;-91
2023/03/11 07:27:57;;;;;;;13.27;7.80;;;0.70;99.90;;;;;;7807751;28;20197;-92
2023/03/11 07:31:47;;;;;;;16.40;9.77;;;0.70;99.90;;;;;;7804090;28;20262;-92
2023/03/11 07:35:34;;;;;;;15.97;9.60;;;0.60;99.90;;;;;;7776962;28;20227;-91
2023/03/11 07:39:58;;;;;;;13.47;8.77;;;0.70;99.90;;;;;;7776813;28;20266;-91
2023/03/11 07:43:57;;;;;;;13.77;7.90;;;0.70;99.90;;;;;;7776521;28;20206;-91
2023/03/11 07:47:43;;;;;;;15.60;8.07;;;0.60;99.90;;;;;;7783530;28;20225;-93
2023/03/11 07:51:31;;;;;;;15.13;8.67;;;0.60;99.90;;;;;;7814482;28;20263;-89
2023/03/11 07:55:18;;;;;;;16.27;9.20;;;0.70;99.90;;;;;;7809492;28;20217;-91
2023/03/11 07:59:04;;;;;;;15.53;9.30;;;0.60;99.90;;;;;;7807250;28;20263;-91
2023/03/11 08:02:50;;;;;;;15.57;8.53;;;0.70;99.90;;;;;;7808615;28;20209;-91
2023/03/11 08:06:45;;;;;;;15.63;8.70;;;0.60;99.90;;;;;;7807710;28;20190;-91
2023/03/11 08:10:31;;;;;;;15.17;8.90;;;0.60;99.90;;;;;;7807451;28;20177;-91
2023/03/11 08:14:16;;;;;;;20.70;9.67;;;0.70;99.90;;;;;;7806976;28;20222;-91
2023/03/11 08:18:03;;;;;;;16.90;9.23;;;0.60;99.90;;;;;;7801525;28;20278;-91
2023/03/11 08:21:54;;;;;;;19.87;10.07;;;0.60;99.90;;;;;;7781943;28;20669;-91
2023/03/11 08:25:40;;;;;;;18.40;9.73;;;0.80;99.90;;;;;;7805816;28;20203;-92
2023/03/11 08:29:31;;;;;;;18.87;9.00;;;0.70;99.90;;;;;;7807822;28;20273;-92
2023/03/11 08:33:18;;;;;;;15.10;8.73;;;0.70;99.90;;;;;;7806385;28;20591;-92
2023/03/11 08:37:04;;;;;;;16.43;8.70;;;0.70;99.90;;;;;;7813462;28;20246;-92
2023/03/11 08:40:50;;;;;;;15.60;9.23;;;0.70;99.90;;;;;;7807337;28;20186;-92
2023/03/11 08:44:35;;;;;;;16.23;9.00;;;0.80;99.90;;;;;;7800035;28;20210;-92
2023/03/11 08:48:24;;;;;;;18.30;9.03;;;0.80;99.90;;;;;;7795575;28;20184;-92
2023/03/11 08:52:11;;;;;;;18.30;9.23;;;0.80;99.90;;;;;;7801176;28;20190;-92
2023/03/11 08:55:57;;;;;;;19.43;10.33;;;0.80;99.90;;;;;;7805204;28;20237;-93
2023/03/11 08:59:43;;;;;;;17.57;10.40;;;0.80;99.90;;;;;;7818902;28;20175;-91
2023/03/11 09:03:34;;;;;;;17.17;9.77;;;0.70;99.90;;;;;;7823812;28;20206;-92
2023/03/11 09:07:20;;;;;;;19.33;10.43;;;0.80;99.90;;;;;;7814045;28;20210;-93
2023/03/11 09:11:24;;;;;;;21.33;10.70;;;0.90;99.90;;;;;;7811987;28;20241;-93
2023/03/11 09:15:24;;;;;;;17.17;9.73;;;0.90;99.90;;;;;;7811051;28;20304;-92
2023/03/11 09:19:09;;;;;;;19.87;10.97;;;0.80;99.90;;;;;;7804120;28;20554;-92
2023/03/11 09:22:55;;;;;;;17.87;10.27;;;0.90;99.90;;;;;;7801066;28;20199;-92
2023/03/11 09:26:41;;;;;;;15.63;9.60;;;0.90;99.90;;;;;;7799714;28;20290;-92
2023/03/11 09:30:27;;;;;;;17.33;9.70;;;0.90;99.90;;;;;;7797120;28;20285;-92
2023/03/11 09:34:12;;;;;;;17.23;10.13;;;0.80;99.90;;;;;;7811443;28;20215;-90
2023/03/11 09:37:58;;;;;;;19.10;9.77;;;0.90;99.90;;;;;;7825096;28;20182;-93
2023/03/11 09:42:14;;;;;;;18.00;10.23;;;1.10;99.90;;;;;;7797503;28;20212;-93
2023/03/11 09:46:31;;;;;;;16.43;9.47;;;0.90;99.90;;;;;;7815809;28;20262;-90
2023/03/11 09:50:49;;;;;;;17.07;9.40;;;1.00;99.90;;;;;;7829232;28;20202;-93
2023/03/11 09:54:52;;;;;;;16.83;9.37;;;1.00;99.90;;;;;;7808917;28;20317;-92
2023/03/11 09:58:47;;;;;;;14.97;9.10;;;0.90;99.90;;;;;;7808662;28;20195;-93
2023/03/11 10:07:20;;;;;;;17.47;9.93;;;0.80;99.90;;;;;;7791257;28;20175;-91
2023/03/11 10:11:30;;;;;;;21.20;11.03;;;0.80;99.90;;;;;;7794932;28;20202;-92
2023/03/11 10:15:48;;;;;;;18.77;11.03;;;0.70;99.90;;;;;;7798899;28;20211;-91
2023/03/11 10:19:57;;;;;;;18.33;10.73;;;0.80;99.90;;;;;;7800706;28;20203;-92
2023/03/11 10:24:02;;;;;;;19.10;11.10;;;0.80;99.90;;;;;;7815010;28;20268;-85
2023/03/11 10:27:50;;;;;;;19.47;10.67;;;0.70;99.90;;;;;;7801366;28;20194;-84
2023/03/11 10:31:59;;;;;;;17.43;11.03;;;0.80;99.90;;;;;;7803917;28;20423;-92
2023/03/11 10:35:51;;;;;;;22.60;11.87;;;0.70;99.90;;;;;;7809709;28;20584;-91
2023/03/11 10:39:46;;;;;;;18.60;11.07;;;0.80;99.90;;;;;;7810914;28;20274;-91
2023/03/11 10:43:40;;;;;;;20.10;11.47;;;0.90;99.90;;;;;;7807426;28;20227;-92
2023/03/11 10:47:37;;;;;;;17.90;10.67;;;0.90;99.90;;;;;;7803150;28;20620;-91
2023/03/11 10:51:35;;;;;;;16.10;9.73;;;1.00;99.90;;;;;;7806077;28;20525;-91
2023/03/11 10:55:20;;;;;;;19.73;10.87;;;0.90;99.90;;;;;;7789257;28;20230;-91
2023/03/11 10:59:30;;;;;;;31.87;15.63;;;0.90;99.90;;;;;;7802213;28;20199;-92
2023/03/11 11:03:33;;;;;;;35.17;21.80;;;0.90;99.90;;;;;;7803979;28;20264;-92
2023/03/11 11:07:45;;;;;;;18.23;11.23;;;1.00;99.90;;;;;;7808469;28;20182;-92
2023/03/11 11:12:03;;;;;;;21.20;11.13;;;0.90;99.90;;;;;;7800144;28;20187;-92
2023/03/11 11:16:16;;;;;;;18.90;11.80;;;1.00;99.90;;;;;;7800647;28;20233;-92
2023/03/11 11:20:12;;;;;;;17.77;10.10;;;1.00;99.90;;;;;;7798566;28;20720;-92
2023/03/11 11:24:25;;;;;;;21.00;11.90;;;1.00;99.90;;;;;;7801632;28;20206;-93
2023/03/11 11:28:19;;;;;;;20.27;10.03;;;1.00;99.90;;;;;;7793662;28;20562;-92
2023/03/11 11:32:25;;;;;;;18.47;10.03;;;1.00;99.90;;;;;;7777505;28;20277;-92
2023/03/11 11:36:28;;;;;;;17.63;9.13;;;1.20;99.90;;;;;;7784098;28;20808;-92
2023/03/11 11:40:15;;;;;;;16.63;9.00;;;1.40;99.90;;;;;;7805686;28;20175;-91
2023/03/11 11:44:20;;;;;;;13.53;8.17;;;1.50;99.90;;;;;;7826989;28;20186;-90
2023/03/11 11:48:47;;;;;;;15.87;8.70;;;1.70;99.90;;;;;;7812373;28;20246;-91
2023/03/11 11:52:54;;;;;;;17.67;9.53;;;1.80;99.90;;;;;;7798026;28;20216;-89
2023/03/11 11:57:14;;;;;;;16.53;9.60;;;1.70;99.90;;;;;;7797483;28;20585;-91
2023/03/11 12:01:13;;;;;;;15.80;9.17;;;1.70;99.90;;;;;;7802093;28;20675;-84
2023/03/11 12:05:16;;;;;;;14.83;8.33;;;1.70;99.90;;;;;;7789032;28;20210;-87
2023/03/11 12:09:22;;;;;;;15.00;8.90;;;1.60;99.90;;;;;;7803239;28;20240;-85
2023/03/11 12:13:42;;;;;;;12.83;8.30;;;1.50;99.90;;;;;;7798903;28;20233;-91
2023/03/11 12:17:30;;;;;;;15.77;7.67;;;1.50;99.90;;;;;;7809634;28;20281;-91
2023/03/11 12:21:32;;;;;;;15.83;8.13;;;1.40;99.90;;;;;;7792237;28;20179;-91
2023/03/11 12:25:40;;;;;;;11.70;7.07;;;1.30;99.90;;;;;;7792165;28;20214;-92
2023/03/11 12:29:30;;;;;;;16.37;8.33;;;1.20;99.90;;;;;;7788695;28;20186;-91
2023/03/11 12:33:32;;;;;;;15.77;9.13;;;1.20;99.90;;;;;;7811046;28;20218;-91
2023/03/11 12:37:58;;;;;;;11.93;7.30;;;1.30;99.90;;;;;;7809218;28;20648;-92
2023/03/11 12:41:45;;;;;;;12.53;7.27;;;1.20;99.90;;;;;;7805333;28;20190;-92
2023/03/11 12:46:16;;;;;;;15.37;8.30;;;1.20;99.90;;;;;;7804523;28;20206;-92
2023/03/11 12:50:39;;;;;;;18.53;9.00;;;1.10;99.90;;;;;;7809166;28;20182;-92
2023/03/11 12:54:43;;;;;;;12.07;7.80;;;1.30;99.90;;;;;;7807912;28;20217;-93
2023/03/11 12:59:02;;;;;;;12.90;7.53;;;1.20;99.90;;;;;;7813163;28;20186;-92
2023/03/11 13:03:14;;;;;;;15.83;8.93;;;1.20;99.90;;;;;;7807490;28;20644;-92
2023/03/11 13:07:39;;;;;;;13.80;8.97;;;1.20;99.90;;;;;;7800018;28;20190;-91
2023/03/11 13:11:45;;;;;;;14.67;8.03;;;1.20;99.90;;;;;;7796314;28;20265;-91
2023/03/11 13:15:36;;;;;;;19.57;9.73;;;1.30;99.90;;;;;;7786004;28;20210;-92
2023/03/11 13:19:35;;;;;;;15.33;8.23;;;1.20;99.90;;;;;;7789146;28;20191;-92
2023/03/11 13:23:26;;;;;;;13.50;8.83;;;1.30;99.90;;;;;;7804253;28;20211;-91
2023/03/11 13:27:33;;;;;;;15.00;9.23;;;1.30;99.90;;;;;;7798750;28;20301;-92
2023/03/11 13:31:47;;;;;;;15.37;8.10;;;1.40;99.90;;;;;;7804838;28;20205;-92
2023/03/11 13:36:01;;;;;;;12.90;7.17;;;1.40;99.90;;;;;;7814785;28;20290;-93
2023/03/11 13:40:18;;;;;;;16.87;7.93;;;1.50;99.90;;;;;;7819999;28;20250;-89
2023/03/11 13:44:23;;;;;;;18.00;9.90;;;1.50;99.90;;;;;;7836217;28;20272;-92
2023/03/11 13:48:49;;;;;;;21.60;10.77;;;1.50;99.90;;;;;;7814840;28;20194;-92
2023/03/11 13:52:43;;;;;;;10.27;6.33;;;1.60;99.90;;;;;;7811590;28;20230;-92
2023/03/11 13:56:38;;;;;;;13.20;7.67;;;1.80;99.90;;;;;;7796601;28;20295;-92
2023/03/11 14:00:32;;;;;;;11.97;7.40;;;1.70;99.90;;;;;;7797026;28;20208;-92
2023/03/11 14:04:36;;;;;;;10.23;6.43;;;1.80;99.90;;;;;;7785748;28;20285;-93
2023/03/11 14:08:24;;;;;;;14.40;7.77;;;1.70;99.90;;;;;;7786607;28;20558;-91
2023/03/11 14:12:10;;;;;;;27.50;14.17;;;1.60;99.90;;;;;;7799743;28;20187;-92
2023/03/11 14:16:42;;;;;;;13.43;7.90;;;1.60;99.90;;;;;;7824377;28;20584;-91
2023/03/11 14:20:30;;;;;;;11.63;7.20;;;1.60;99.90;;;;;;7802519;28;20199;-89
2023/03/11 14:24:28;;;;;;;12.37;7.27;;;1.60;99.90;;;;;;7798768;28;20265;-89
2023/03/11 14:28:20;;;;;;;10.30;6.53;;;1.60;99.90;;;;;;7794590;28;20179;-84
2023/03/11 14:32:24;;;;;;;13.60;7.87;;;1.60;99.90;;;;;;7804378;28;20265;-85
2023/03/11 14:36:12;;;;;;;11.57;6.93;;;1.50;99.90;;;;;;7801184;28;20191;-83
2023/03/11 14:39:58;;;;;;;10.43;6.90;;;1.60;99.90;;;;;;7790393;28;20190;-87
2023/03/11 14:44:34;;;;;;;12.93;7.47;;;1.60;99.90;;;;;;7794467;28;20229;-91
2023/03/11 14:48:57;;;;;;;13.10;7.40;;;1.70;99.90;;;;;;7796206;28;20646;-92
2023/03/11 14:53:13;;;;;;;12.23;6.27;;;1.60;99.90;;;;;;7778440;28;20218;-90
2023/03/11 14:57:17;;;;;;;10.77;5.87;;;1.50;99.90;;;;;;7787629;28;20655;-84
2023/03/11 15:01:30;;;;;;;9.70;6.00;;;1.40;99.90;;;;;;7784107;28;20196;-91
2023/03/11 15:05:57;;;;;;;9.03;5.43;;;1.50;99.90;;;;;;7807796;28;20214;-93
2023/03/11 15:09:54;;;;;;;8.97;5.90;;;1.50;99.90;;;;;;7801461;28;20184;-92
2023/03/11 15:14:18;;;;;;;10.30;6.00;;;1.60;99.90;;;;;;7788182;28;20207;-92
2023/03/11 15:18:21;;;;;;;9.23;5.93;;;1.50;99.90;;;;;;7778598;28;20187;-89
2023/03/11 15:22:39;;;;;;;9.33;5.90;;;1.50;99.90;;;;;;7789359;28;20690;-90
2023/03/11 15:26:31;;;;;;;10.93;5.90;;;1.60;99.90;;;;;;7790770;28;20205;-91
2023/03/11 15:30:17;;;;;;;9.67;5.97;;;1.60;99.90;;;;;;7797779;28;20195;-91
2023/03/11 15:34:15;;;;;;;9.97;5.67;;;1.60;99.90;;;;;;7799593;28;20210;-91
2023/03/11 15:38:26;;;;;;;8.60;6.20;;;1.60;99.90;;;;;;7827033;28;20190;-91
2023/03/11 15:42:17;;;;;;;13.47;5.60;;;1.60;99.90;;;;;;7807050;28;20529;-90
2023/03/11 15:46:03;;;;;;;10.30;6.03;;;1.50;99.90;;;;;;7791952;28;20194;-90
2023/03/11 15:49:50;;;;;;;10.37;5.57;;;1.50;99.90;;;;;;7804513;28;20186;-91
2023/03/11 15:53:35;;;;;;;11.60;6.97;;;1.50;99.90;;;;;;7802605;28;20211;-91
2023/03/11 15:57:27;;;;;;;29.33;14.10;;;1.50;99.90;;;;;;7791171;28;20183;-91
2023/03/11 16:01:14;;;;;;;23.50;11.40;;;1.60;99.90;;;;;;7820034;28;20587;-91
2023/03/11 16:04:59;;;;;;;11.00;6.43;;;1.40;99.90;;;;;;7806650;28;20203;-90
2023/03/11 16:09:14;;;;;;;11.10;6.83;;;1.50;99.90;;;;;;7793062;28;20189;-90
2023/03/11 16:13:00;;;;;;;9.27;6.00;;;1.50;99.90;;;;;;7806517;28;20707;-91
2023/03/11 16:16:46;;;;;;;10.10;6.00;;;1.50;99.90;;;;;;7806424;28;20615;-91
2023/03/11 16:20:43;;;;;;;11.67;6.57;;;1.50;99.90;;;;;;7815720;28;20241;-90
2023/03/11 16:24:28;;;;;;;14.60;8.07;;;1.50;99.90;;;;;;7787784;28;20213;-91
2023/03/11 16:28:41;;;;;;;13.40;8.07;;;1.50;99.90;;;;;;7780371;28;20223;-90
2023/03/11 16:32:26;;;;;;;10.70;5.90;;;1.60;99.90;;;;;;7806250;28;20598;-91
2023/03/11 16:36:12;;;;;;;13.93;7.23;;;1.60;99.90;;;;;;7806618;28;20550;-91
2023/03/11 16:39:58;;;;;;;9.80;5.90;;;1.60;99.90;;;;;;7804940;28;20636;-90
2023/03/11 16:43:44;;;;;;;9.30;5.40;;;1.60;99.90;;;;;;7794847;28;20206;-90
2023/03/11 16:47:29;;;;;;;10.60;6.30;;;1.50;99.90;;;;;;7801912;28;20848;-90
2023/03/11 16:51:15;;;;;;;10.80;6.20;;;1.40;99.90;;;;;;7805744;28;20557;-90
2023/03/11 16:55:06;;;;;;;10.03;6.70;;;1.40;99.90;;;;;;7789021;28;20616;-91
2023/03/11 16:58:52;;;;;;;11.93;7.60;;;1.50;99.90;;;;;;7788631;28;20225;-86
2023/03/11 17:02:54;;;;;;;16.83;9.97;;;1.50;99.90;;;;;;7778808;28;20231;-91
2023/03/11 17:06:40;;;;;;;18.23;10.37;;;1.60;99.90;;;;;;7806223;28;20679;-91
2023/03/11 17:10:43;;;;;;;21.47;12.70;;;1.50;99.90;;;;;;7805667;28;20685;-91
2023/03/11 17:14:31;;;;;;;21.20;11.00;;;1.60;99.90;;;;;;7798299;28;20241;-91
2023/03/11 17:18:20;;;;;;;16.43;9.80;;;1.40;99.90;;;;;;7807918;28;20652;-91
2023/03/11 17:22:31;;;;;;;15.90;10.07;;;1.50;99.90;;;;;;7801498;28;20547;-91
2023/03/11 17:26:25;;;;;;;13.73;8.20;;;1.50;99.90;;;;;;7803877;28;20201;-91
2023/03/11 17:30:16;;;;;;;15.50;8.70;;;1.40;99.90;;;;;;7801876;28;20195;-90
2023/03/11 17:34:02;;;;;;;13.77;7.67;;;1.40;99.90;;;;;;7805836;28;20777;-92
2023/03/11 17:38:17;;;;;;;11.07;7.10;;;1.30;99.90;;;;;;7833568;28;20539;-90
2023/03/11 17:42:12;;;;;;;14.03;8.87;;;1.20;99.90;;;;;;7782382;28;20187;-91
2023/03/11 17:45:59;;;;;;;13.50;8.93;;;1.30;99.90;;;;;;7794757;28;20209;-84
2023/03/11 17:49:44;;;;;;;15.90;9.20;;;1.20;99.90;;;;;;7797477;28;20266;-90
2023/03/11 17:53:41;;;;;;;13.97;9.00;;;1.20;99.90;;;;;;7806267;28;20305;-90
2023/03/11 17:57:26;;;;;;;22.97;10.80;;;1.10;99.90;;;;;;7809844;28;20193;-91
2023/03/11 18:01:31;;;;;;;19.60;9.27;;;1.20;99.90;;;;;;7810871;28;20250;-91
2023/03/11 18:05:31;;;;;;;14.77;9.03;;;1.30;99.90;;;;;;7798603;28;20229;-90
2023/03/11 18:09:32;;;;;;;16.43;9.13;;;1.30;99.90;;;;;;7804752;28;20190;-88
2023/03/11 18:13:21;;;;;;;18.53;8.33;;;1.30;99.90;;;;;;7809793;28;20210;-91
2023/03/11 18:17:07;;;;;;;18.73;9.73;;;1.10;99.90;;;;;;7809060;28;20186;-90
2023/03/11 18:20:53;;;;;;;12.93;8.63;;;1.10;99.90;;;;;;7805252;28;20206;-90
2023/03/11 18:24:38;;;;;;;13.07;8.43;;;1.00;99.90;;;;;;7796021;28;20742;-90
2023/03/11 18:28:24;;;;;;;17.60;10.50;;;1.20;99.90;;;;;;7811817;28;20261;-90
2023/03/11 18:32:10;;;;;;;18.77;10.33;;;1.10;99.90;;;;;;7803834;28;20261;-91
2023/03/11 18:35:56;;;;;;;25.37;12.30;;;1.20;99.90;;;;;;7778689;28;20219;-90
2023/03/11 18:39:41;;;;;;;22.73;10.93;;;1.10;99.90;;;;;;7788916;28;20178;-90
2023/03/11 18:43:38;;;;;;;15.83;9.90;;;1.10;99.90;;;;;;7809486;28;20310;-90
2023/03/11 18:47:24;;;;;;;14.67;9.17;;;1.10;99.90;;;;;;7795359;28;20183;-90
2023/03/11 18:51:44;;;;;;;18.37;11.20;;;1.10;99.90;;;;;;7783997;28;20605;-91
2023/03/11 18:55:41;;;;;;;13.47;9.07;;;1.20;99.90;;;;;;7788018;28;20646;-91
2023/03/11 19:00:07;;;;;;;14.60;8.90;;;1.10;99.90;;;;;;7801591;28;20186;-90
2023/03/11 19:03:58;;;;;;;16.03;9.10;;;1.10;99.90;;;;;;7816745;28;20259;-91
2023/03/11 19:07:44;;;;;;;15.00;9.87;;;0.90;99.90;;;;;;7799670;28;20194;-91
2023/03/11 19:11:30;;;;;;;15.23;7.70;;;1.00;99.90;;;;;;7796640;28;20237;-91
2023/03/11 19:15:20;;;;;;;12.77;7.13;;;1.00;99.90;;;;;;7801361;28;20211;-91
2023/03/11 19:19:05;;;;;;;12.83;7.90;;;0.80;99.90;;;;;;7807525;28;20190;-90
2023/03/11 19:22:53;;;;;;;14.13;9.03;;;0.80;99.90;;;;;;7796573;28;20199;-91
2023/03/11 19:26:39;;;;;;;16.67;8.97;;;0.80;99.90;;;;;;7808888;28;20206;-90
2023/03/11 19:30:26;;;;;;;14.53;8.90;;;0.70;99.90;;;;;;7804347;28;20178;-91
2023/03/11 19:34:34;;;;;;;16.83;8.77;;;0.80;99.90;;;;;;7835368;28;20202;-91
2023/03/11 19:38:20;;;;;;;15.90;8.27;;;0.80;99.90;;;;;;7822185;28;20679;-91
2023/03/11 19:42:13;;;;;;;18.00;10.90;;;0.80;99.90;;;;;;7813904;28;20275;-91
2023/03/11 19:46:05;;;;;;;19.60;11.77;;;0.70;99.90;;;;;;7804079;28;20209;-91
2023/03/11 19:50:17;;;;;;;19.90;11.10;;;0.70;99.90;;;;;;7791993;28;20198;-91
2023/03/11 19:54:03;;;;;;;27.03;13.53;;;0.80;99.90;;;;;;7778915;28;20211;-90
2023/03/11 19:57:49;;;;;;;20.93;12.37;;;0.80;99.90;;;;;;7782083;28;20186;-91
2023/03/11 20:01:45;;;;;;;17.83;11.03;;;0.90;99.90;;;;;;7778232;28;20183;-90
2023/03/11 20:05:37;;;;;;;14.93;9.23;;;0.90;99.90;;;;;;7784287;28;20202;-90
2023/03/11 20:09:23;;;;;;;18.70;10.27;;;0.90;99.90;;;;;;7793087;28;20178;-91
2023/03/11 20:13:09;;;;;;;19.80;9.70;;;0.90;99.90;;;;;;7794657;28;20261;-91
2023/03/11 20:17:00;;;;;;;14.67;9.47;;;1.00;99.90;;;;;;7791738;28;20274;-91
2023/03/11 20:20:46;;;;;;;21.97;11.50;;;0.80;99.90;;;;;;7786572;28;20191;-92
2023/03/11 20:24:40;;;;;;;18.73;11.20;;;0.60;99.90;;;;;;7777906;28;20207;-91